sensor_id;sensor_type;location;lat;lon;timestamp;pressure;altitude;pressure_sealevel;temperature;humidity
1694;BME280;71975;47.068;15.408;2023-08-17T00:00:49;97549.69;;;23.11;79.98
1694;BME280;71975;47.068;15.408;2023-08-17T00:05:54;97551.19;;;23.32;79.34
1694;BME280;71975;47.068;15.408;2023-08-17T00:10:57;97552.69;;;23.33;80.11
1694;BME280;71975;47.068;15.408;2023-08-17T00:15:59;97534.03;;;23.48;78.58
1694;BME280;71975;47.068;15.408;2023-08-17T00:21:04;97539.06;;;23.50;78.43
1694;BME280;71975;47.068;15.408;2023-08-17T00:26:08;97532.50;;;23.47;78.95
1694;BME280;71975;47.068;15.408;2023-08-17T00:31:11;97534.19;;;23.39;79.14
1694;BME280;71975;47.068;15.408;2023-08-17T00:36:15;97543.47;;;23.16;80.20
1694;BME280;71975;47.068;15.408;2023-08-17T00:41:18;97548.41;;;23.32;78.76
1694;BME280;71975;47.068;15.408;2023-08-17T00:46:21;97540.97;;;23.38;78.00
1694;BME280;71975;47.068;15.408;2023-08-17T00:51:27;97535.34;;;22.87;81.63
1694;BME280;71975;47.068;15.408;2023-08-17T00:56:30;97537.97;;;22.96;81.22
1694;BME280;71975;47.068;15.408;2023-08-17T01:01:33;97550.53;;;22.97;81.66
1694;BME280;71975;47.068;15.408;2023-08-17T01:06:37;97548.72;;;22.94;81.94
1694;BME280;71975;47.068;15.408;2023-08-17T01:11:45;97542.59;;;22.84;82.97
1694;BME280;71975;47.068;15.408;2023-08-17T01:16:55;97536.88;;;22.88;83.82
1694;BME280;71975;47.068;15.408;2023-08-17T01:22:03;97542.25;;;22.97;83.00
1694;BME280;71975;47.068;15.408;2023-08-17T01:27:08;97534.09;;;23.08;82.45
1694;BME280;71975;47.068;15.408;2023-08-17T01:32:18;97528.88;;;23.16;81.32
1694;BME280;71975;47.068;15.408;2023-08-17T01:37:27;97523.56;;;22.86;83.69
1694;BME280;71975;47.068;15.408;2023-08-17T01:42:32;97522.47;;;22.78;84.96
1694;BME280;71975;47.068;15.408;2023-08-17T01:47:35;97529.28;;;22.83;84.76
1694;BME280;71975;47.068;15.408;2023-08-17T01:52:38;97515.50;;;23.08;82.72
1694;BME280;71975;47.068;15.408;2023-08-17T01:57:43;97528.25;;;23.00;83.10
1694;BME280;71975;47.068;15.408;2023-08-17T02:02:45;97538.53;;;23.00;83.45
1694;BME280;71975;47.068;15.408;2023-08-17T02:07:48;97545.69;;;23.12;81.03
1694;BME280;71975;47.068;15.408;2023-08-17T02:12:53;97545.47;;;23.16;79.55
1694;BME280;71975;47.068;15.408;2023-08-17T02:18:05;97544.47;;;22.93;80.80
1694;BME280;71975;47.068;15.408;2023-08-17T02:23:08;97544.28;;;22.76;81.67
1694;BME280;71975;47.068;15.408;2023-08-17T02:28:12;97537.50;;;22.77;82.16
1694;BME280;71975;47.068;15.408;2023-08-17T02:33:15;97525.38;;;22.69;83.06
1694;BME280;71975;47.068;15.408;2023-08-17T02:38:18;97529.09;;;22.66;83.58
1694;BME280;71975;47.068;15.408;2023-08-17T02:43:22;97521.91;;;22.74;83.14
1694;BME280;71975;47.068;15.408;2023-08-17T02:48:26;97535.47;;;22.58;84.51
1694;BME280;71975;47.068;15.408;2023-08-17T02:53:31;97547.16;;;22.67;83.24
1694;BME280;71975;47.068;15.408;2023-08-17T02:58:35;97544.59;;;22.64;82.61
1694;BME280;71975;47.068;15.408;2023-08-17T03:03:40;97549.72;;;22.71;82.25
1694;BME280;71975;47.068;15.408;2023-08-17T03:08:43;97540.63;;;22.65;82.51
1694;BME280;71975;47.068;15.408;2023-08-17T03:13:47;97533.56;;;22.84;80.45
1694;BME280;71975;47.068;15.408;2023-08-17T03:18:50;97535.69;;;22.94;80.16
1694;BME280;71975;47.068;15.408;2023-08-17T03:23:53;97544.19;;;22.71;81.60
1694;BME280;71975;47.068;15.408;2023-08-17T03:28:57;97543.84;;;22.83;81.36
1694;BME280;71975;47.068;15.408;2023-08-17T03:34:00;97537.31;;;22.81;81.18
1694;BME280;71975;47.068;15.408;2023-08-17T03:39:04;97540.75;;;22.76;81.19
1694;BME280;71975;47.068;15.408;2023-08-17T03:44:08;97531.00;;;22.80;81.25
1694;BME280;71975;47.068;15.408;2023-08-17T03:49:11;97536.00;;;22.41;83.95
1694;BME280;71975;47.068;15.408;2023-08-17T03:54:14;97543.28;;;22.24;86.01
1694;BME280;71975;47.068;15.408;2023-08-17T03:59:18;97542.56;;;21.80;90.05
1694;BME280;71975;47.068;15.408;2023-08-17T04:04:21;97539.34;;;22.11;88.21
1694;BME280;71975;47.068;15.408;2023-08-17T04:09:24;97551.44;;;22.33;86.42
1694;BME280;71975;47.068;15.408;2023-08-17T04:14:28;97543.28;;;22.24;86.43
1694;BME280;71975;47.068;15.408;2023-08-17T04:19:31;97551.19;;;22.17;87.55
1694;BME280;71975;47.068;15.408;2023-08-17T04:24:34;97553.44;;;21.98;88.66
1694;BME280;71975;47.068;15.408;2023-08-17T04:29:39;97552.56;;;21.92;89.37
1694;BME280;71975;47.068;15.408;2023-08-17T04:34:42;97544.75;;;22.05;88.34
1694;BME280;71975;47.068;15.408;2023-08-17T04:39:45;97566.00;;;22.34;86.49
1694;BME280;71975;47.068;15.408;2023-08-17T04:44:51;97551.06;;;22.61;84.67
1694;BME280;71975;47.068;15.408;2023-08-17T04:49:54;97551.97;;;22.72;83.36
1694;BME280;71975;47.068;15.408;2023-08-17T04:54:57;97552.28;;;22.39;86.29
1694;BME280;71975;47.068;15.408;2023-08-17T05:00:01;97554.97;;;22.34;87.42
1694;BME280;71975;47.068;15.408;2023-08-17T05:05:06;97563.00;;;22.17;89.42
1694;BME280;71975;47.068;15.408;2023-08-17T05:10:10;97562.56;;;22.39;87.92
1694;BME280;71975;47.068;15.408;2023-08-17T05:15:14;97564.03;;;22.55;87.17
1694;BME280;71975;47.068;15.408;2023-08-17T05:20:17;97563.53;;;22.56;87.69
1694;BME280;71975;47.068;15.408;2023-08-17T05:25:22;97560.75;;;22.71;87.23
1694;BME280;71975;47.068;15.408;2023-08-17T05:30:27;97569.31;;;22.93;86.14
1694;BME280;71975;47.068;15.408;2023-08-17T05:35:31;97559.56;;;23.18;82.88
1694;BME280;71975;47.068;15.408;2023-08-17T05:40:34;97553.31;;;23.43;82.15
1694;BME280;71975;47.068;15.408;2023-08-17T05:45:38;97555.19;;;23.83;79.11
1694;BME280;71975;47.068;15.408;2023-08-17T05:50:41;97562.38;;;24.31;77.08
1694;BME280;71975;47.068;15.408;2023-08-17T05:55:44;97566.59;;;24.69;73.43
1694;BME280;71975;47.068;15.408;2023-08-17T06:00:49;97569.75;;;24.93;71.77
1694;BME280;71975;47.068;15.408;2023-08-17T06:05:52;97578.69;;;25.25;69.53
1694;BME280;71975;47.068;15.408;2023-08-17T06:10:56;97585.75;;;25.32;69.18
1694;BME280;71975;47.068;15.408;2023-08-17T06:16:00;97572.28;;;24.91;70.60
1694;BME280;71975;47.068;15.408;2023-08-17T06:21:03;97566.09;;;24.71;72.46
1694;BME280;71975;47.068;15.408;2023-08-17T06:26:06;97582.38;;;24.94;71.30
1694;BME280;71975;47.068;15.408;2023-08-17T06:31:14;97579.13;;;25.01;74.35
1694;BME280;71975;47.068;15.408;2023-08-17T06:36:17;97579.53;;;25.48;71.72
1694;BME280;71975;47.068;15.408;2023-08-17T06:41:20;97576.56;;;26.12;68.39
1694;BME280;71975;47.068;15.408;2023-08-17T06:46:25;97579.00;;;26.77;62.10
1694;BME280;71975;47.068;15.408;2023-08-17T06:51:30;97577.72;;;27.46;58.49
1694;BME280;71975;47.068;15.408;2023-08-17T06:56:32;97579.59;;;28.03;56.45
1694;BME280;71975;47.068;15.408;2023-08-17T07:01:37;97576.78;;;28.39;55.42
1694;BME280;71975;47.068;15.408;2023-08-17T07:06:40;97582.03;;;28.42;54.29
1694;BME280;71975;47.068;15.408;2023-08-17T07:11:43;97571.38;;;28.70;53.53
1694;BME280;71975;47.068;15.408;2023-08-17T07:16:47;97583.69;;;28.80;51.72
1694;BME280;71975;47.068;15.408;2023-08-17T07:21:50;97583.31;;;29.70;48.41
1694;BME280;71975;47.068;15.408;2023-08-17T07:26:53;97584.53;;;30.51;45.72
1694;BME280;71975;47.068;15.408;2023-08-17T07:31:58;97583.38;;;31.12;44.46
1694;BME280;71975;47.068;15.408;2023-08-17T07:37:04;97589.88;;;31.87;41.91
1694;BME280;71975;47.068;15.408;2023-08-17T07:42:07;97587.50;;;32.33;39.64
1694;BME280;71975;47.068;15.408;2023-08-17T07:47:12;97574.22;;;33.10;38.90
1694;BME280;71975;47.068;15.408;2023-08-17T07:52:15;97576.31;;;33.17;38.08
1694;BME280;71975;47.068;15.408;2023-08-17T07:57:18;97590.22;;;33.81;37.10
1694;BME280;71975;47.068;15.408;2023-08-17T08:02:22;97581.81;;;34.49;35.53
1694;BME280;71975;47.068;15.408;2023-08-17T08:07:25;97583.16;;;34.71;34.97
1694;BME280;71975;47.068;15.408;2023-08-17T08:12:29;97582.03;;;35.37;34.10
1694;BME280;71975;47.068;15.408;2023-08-17T08:17:33;97577.91;;;35.38;34.29
1694;BME280;71975;47.068;15.408;2023-08-17T08:22:37;97575.38;;;35.89;33.60
1694;BME280;71975;47.068;15.408;2023-08-17T08:27:40;97577.88;;;36.34;32.87
1694;BME280;71975;47.068;15.408;2023-08-17T08:32:44;97581.41;;;36.84;31.91
1694;BME280;71975;47.068;15.408;2023-08-17T08:37:48;97581.97;;;36.83;31.17
1694;BME280;71975;47.068;15.408;2023-08-17T08:42:50;97576.31;;;36.66;31.51
1694;BME280;71975;47.068;15.408;2023-08-17T08:47:55;97569.66;;;36.53;32.02
1694;BME280;71975;47.068;15.408;2023-08-17T08:52:59;97561.88;;;37.30;30.15
1694;BME280;71975;47.068;15.408;2023-08-17T08:58:03;97561.56;;;37.09;29.92
1694;BME280;71975;47.068;15.408;2023-08-17T09:03:08;97560.06;;;37.42;29.72
1694;BME280;71975;47.068;15.408;2023-08-17T09:08:13;97562.94;;;37.78;29.49
1694;BME280;71975;47.068;15.408;2023-08-17T09:13:18;97557.06;;;37.67;29.39
1694;BME280;71975;47.068;15.408;2023-08-17T09:18:22;97555.69;;;37.85;29.71
1694;BME280;71975;47.068;15.408;2023-08-17T09:23:25;97555.75;;;37.95;29.01
1694;BME280;71975;47.068;15.408;2023-08-17T09:28:28;97546.38;;;38.02;29.14
1694;BME280;71975;47.068;15.408;2023-08-17T09:33:35;97537.34;;;38.49;28.54
1694;BME280;71975;47.068;15.408;2023-08-17T09:38:38;97546.22;;;38.36;28.55
1694;BME280;71975;47.068;15.408;2023-08-17T09:43:41;97531.72;;;38.78;27.76
1694;BME280;71975;47.068;15.408;2023-08-17T09:48:45;97535.84;;;38.48;27.92
1694;BME280;71975;47.068;15.408;2023-08-17T09:53:51;97525.16;;;39.13;27.58
1694;BME280;71975;47.068;15.408;2023-08-17T09:59:00;97521.28;;;39.28;27.21
1694;BME280;71975;47.068;15.408;2023-08-17T10:04:05;97521.13;;;39.36;25.97
1694;BME280;71975;47.068;15.408;2023-08-17T10:09:15;97518.28;;;38.78;27.38
1694;BME280;71975;47.068;15.408;2023-08-17T10:14:25;97514.63;;;37.84;28.79
1694;BME280;71975;47.068;15.408;2023-08-17T10:19:39;97516.63;;;38.01;28.66
1694;BME280;71975;47.068;15.408;2023-08-17T10:24:46;97509.25;;;37.08;29.73
1694;BME280;71975;47.068;15.408;2023-08-17T10:29:50;97505.13;;;36.57;30.44
1694;BME280;71975;47.068;15.408;2023-08-17T10:34:56;97500.44;;;37.04;29.27
1694;BME280;71975;47.068;15.408;2023-08-17T10:40:00;97501.47;;;35.73;31.29
1694;BME280;71975;47.068;15.408;2023-08-17T10:45:26;97494.94;;;34.91;32.68
1694;BME280;71975;47.068;15.408;2023-08-17T10:50:34;97493.16;;;36.49;30.82
1694;BME280;71975;47.068;15.408;2023-08-17T10:55:45;97493.16;;;36.67;30.28
1694;BME280;71975;47.068;15.408;2023-08-17T11:00:56;97480.97;;;36.05;30.72
1694;BME280;71975;47.068;15.408;2023-08-17T11:06:14;97482.13;;;36.95;30.27
1694;BME280;71975;47.068;15.408;2023-08-17T11:11:19;97484.34;;;38.04;28.09
1694;BME280;71975;47.068;15.408;2023-08-17T11:16:22;97480.56;;;38.47;26.89
1694;BME280;71975;47.068;15.408;2023-08-17T11:21:27;97469.31;;;37.38;28.43
1694;BME280;71975;47.068;15.408;2023-08-17T11:26:30;97464.50;;;37.31;29.25
1694;BME280;71975;47.068;15.408;2023-08-17T11:31:39;97464.78;;;36.82;29.99
1694;BME280;71975;47.068;15.408;2023-08-17T11:36:43;97462.50;;;35.62;32.33
1694;BME280;71975;47.068;15.408;2023-08-17T11:41:46;97466.19;;;35.40;32.39
1694;BME280;71975;47.068;15.408;2023-08-17T11:46:49;97457.47;;;35.78;31.75
1694;BME280;71975;47.068;15.408;2023-08-17T11:51:55;97450.16;;;36.41;30.32
1694;BME280;71975;47.068;15.408;2023-08-17T11:56:59;97454.59;;;37.66;28.60
1694;BME280;71975;47.068;15.408;2023-08-17T12:02:06;97439.19;;;38.90;27.37
1694;BME280;71975;47.068;15.408;2023-08-17T12:07:11;97445.16;;;39.44;25.62
1694;BME280;71975;47.068;15.408;2023-08-17T12:12:17;97441.16;;;37.57;28.96
1694;BME280;71975;47.068;15.408;2023-08-17T12:17:21;97434.38;;;39.21;26.28
1694;BME280;71975;47.068;15.408;2023-08-17T12:22:25;97442.25;;;37.62;28.16
1694;BME280;71975;47.068;15.408;2023-08-17T12:27:29;97432.66;;;36.43;30.05
1694;BME280;71975;47.068;15.408;2023-08-17T12:32:31;97430.25;;;36.39;30.37
1694;BME280;71975;47.068;15.408;2023-08-17T12:37:36;97424.91;;;36.95;29.26
1694;BME280;71975;47.068;15.408;2023-08-17T12:42:39;97426.53;;;37.15;29.15
1694;BME280;71975;47.068;15.408;2023-08-17T12:47:42;97420.53;;;35.99;30.83
1694;BME280;71975;47.068;15.408;2023-08-17T12:52:46;97416.97;;;36.15;30.51
1694;BME280;71975;47.068;15.408;2023-08-17T12:57:49;97414.41;;;36.44;29.96
1694;BME280;71975;47.068;15.408;2023-08-17T13:02:52;97401.56;;;36.50;29.90
1694;BME280;71975;47.068;15.408;2023-08-17T13:07:56;97399.97;;;36.40;30.17
1694;BME280;71975;47.068;15.408;2023-08-17T13:12:59;97398.97;;;35.69;31.02
1694;BME280;71975;47.068;15.408;2023-08-17T13:18:02;97396.53;;;35.41;30.51
1694;BME280;71975;47.068;15.408;2023-08-17T13:23:07;97396.88;;;35.45;31.05
1694;BME280;71975;47.068;15.408;2023-08-17T13:28:09;97388.25;;;35.18;31.93
1694;BME280;71975;47.068;15.408;2023-08-17T13:33:12;97392.69;;;34.56;33.36
1694;BME280;71975;47.068;15.408;2023-08-17T13:38:19;97396.09;;;34.40;32.89
1694;BME280;71975;47.068;15.408;2023-08-17T13:43:22;97388.66;;;34.20;33.22
1694;BME280;71975;47.068;15.408;2023-08-17T13:48:25;97387.22;;;33.96;33.64
1694;BME280;71975;47.068;15.408;2023-08-17T13:53:29;97387.00;;;34.17;33.61
1694;BME280;71975;47.068;15.408;2023-08-17T13:58:32;97382.50;;;34.06;32.79
1694;BME280;71975;47.068;15.408;2023-08-17T14:03:35;97381.94;;;34.00;32.77
1694;BME280;71975;47.068;15.408;2023-08-17T14:08:39;97369.78;;;34.13;32.86
1694;BME280;71975;47.068;15.408;2023-08-17T14:13:42;97371.84;;;33.89;32.36
1694;BME280;71975;47.068;15.408;2023-08-17T14:18:45;97377.09;;;33.78;34.95
1694;BME280;71975;47.068;15.408;2023-08-17T14:23:49;97382.91;;;33.65;34.61
1694;BME280;71975;47.068;15.408;2023-08-17T14:28:52;97380.44;;;33.08;35.65
1694;BME280;71975;47.068;15.408;2023-08-17T14:33:55;97373.91;;;33.13;35.74
1694;BME280;71975;47.068;15.408;2023-08-17T14:38:59;97376.81;;;32.93;35.99
1694;BME280;71975;47.068;15.408;2023-08-17T14:44:02;97374.88;;;32.65;36.66
1694;BME280;71975;47.068;15.408;2023-08-17T14:49:05;97375.69;;;32.96;36.36
1694;BME280;71975;47.068;15.408;2023-08-17T14:54:10;97375.31;;;32.92;36.47
1694;BME280;71975;47.068;15.408;2023-08-17T14:59:13;97363.72;;;32.88;37.17
1694;BME280;71975;47.068;15.408;2023-08-17T15:04:16;97370.44;;;32.85;38.05
1694;BME280;71975;47.068;15.408;2023-08-17T15:09:20;97372.78;;;32.22;39.25
1694;BME280;71975;47.068;15.408;2023-08-17T15:14:23;97360.09;;;32.21;39.00
1694;BME280;71975;47.068;15.408;2023-08-17T15:19:26;97355.88;;;31.99;39.11
1694;BME280;71975;47.068;15.408;2023-08-17T15:24:43;97362.63;;;32.04;39.43
1694;BME280;71975;47.068;15.408;2023-08-17T15:29:46;97358.50;;;32.05;39.49
1694;BME280;71975;47.068;15.408;2023-08-17T15:34:49;97355.91;;;32.07;39.71
1694;BME280;71975;47.068;15.408;2023-08-17T15:39:57;97347.91;;;32.11;39.86
1694;BME280;71975;47.068;15.408;2023-08-17T15:45:00;97350.03;;;31.69;43.24
1694;BME280;71975;47.068;15.408;2023-08-17T15:50:03;97350.09;;;31.77;44.13
1694;BME280;71975;47.068;15.408;2023-08-17T15:55:08;97348.50;;;31.89;43.10
1694;BME280;71975;47.068;15.408;2023-08-17T16:00:12;97349.19;;;31.82;44.01
1694;BME280;71975;47.068;15.408;2023-08-17T16:05:15;97346.34;;;31.74;45.92
1694;BME280;71975;47.068;15.408;2023-08-17T16:10:20;97341.44;;;31.67;42.40
1694;BME280;71975;47.068;15.408;2023-08-17T16:15:23;97342.09;;;31.81;41.69
1694;BME280;71975;47.068;15.408;2023-08-17T16:20:26;97347.19;;;31.62;42.45
1694;BME280;71975;47.068;15.408;2023-08-17T16:25:32;97350.16;;;31.56;40.48
1694;BME280;71975;47.068;15.408;2023-08-17T16:30:36;97346.13;;;31.44;40.70
1694;BME280;71975;47.068;15.408;2023-08-17T16:35:41;97350.31;;;31.37;46.74
1694;BME280;71975;47.068;15.408;2023-08-17T16:40:46;97339.16;;;31.17;48.34
1694;BME280;71975;47.068;15.408;2023-08-17T16:45:51;97347.28;;;31.07;47.24
1694;BME280;71975;47.068;15.408;2023-08-17T16:50:56;97360.72;;;31.09;45.71
1694;BME280;71975;47.068;15.408;2023-08-17T16:56:01;97362.22;;;31.10;45.49
1694;BME280;71975;47.068;15.408;2023-08-17T17:01:06;97369.50;;;30.92;45.76
1694;BME280;71975;47.068;15.408;2023-08-17T17:06:18;97360.22;;;30.97;45.83
1694;BME280;71975;47.068;15.408;2023-08-17T17:11:25;97372.53;;;30.81;46.29
1694;BME280;71975;47.068;15.408;2023-08-17T17:16:31;97371.69;;;30.73;46.32
1694;BME280;71975;47.068;15.408;2023-08-17T17:21:36;97378.16;;;30.68;46.64
1694;BME280;71975;47.068;15.408;2023-08-17T17:26:43;97382.69;;;30.58;46.16
1694;BME280;71975;47.068;15.408;2023-08-17T17:31:48;97384.44;;;30.48;46.80
1694;BME280;71975;47.068;15.408;2023-08-17T17:36:54;97383.38;;;30.38;47.43
1694;BME280;71975;47.068;15.408;2023-08-17T17:42:02;97380.38;;;30.23;48.00
1694;BME280;71975;47.068;15.408;2023-08-17T17:47:07;97379.50;;;30.01;48.34
1694;BME280;71975;47.068;15.408;2023-08-17T17:52:13;97394.97;;;29.89;49.04
1694;BME280;71975;47.068;15.408;2023-08-17T17:57:20;97401.63;;;29.86;49.48
1694;BME280;71975;47.068;15.408;2023-08-17T18:02:26;97410.88;;;29.81;51.17
1694;BME280;71975;47.068;15.408;2023-08-17T18:07:32;97414.84;;;29.86;51.38
1694;BME280;71975;47.068;15.408;2023-08-17T18:12:39;97409.91;;;29.79;51.53
1694;BME280;71975;47.068;15.408;2023-08-17T18:17:45;97420.38;;;29.73;51.44
1694;BME280;71975;47.068;15.408;2023-08-17T18:22:50;97420.03;;;29.63;51.51
1694;BME280;71975;47.068;15.408;2023-08-17T18:27:58;97439.00;;;29.51;52.25
1694;BME280;71975;47.068;15.408;2023-08-17T18:33:04;97451.69;;;29.34;53.19
1694;BME280;71975;47.068;15.408;2023-08-17T18:38:11;97457.75;;;29.38;52.70
1694;BME280;71975;47.068;15.408;2023-08-17T18:43:18;97460.31;;;28.99;54.24
1694;BME280;71975;47.068;15.408;2023-08-17T18:48:24;97458.50;;;29.01;54.58
1694;BME280;71975;47.068;15.408;2023-08-17T18:53:30;97459.50;;;29.04;55.55
1694;BME280;71975;47.068;15.408;2023-08-17T18:58:38;97467.38;;;29.00;56.30
1694;BME280;71975;47.068;15.408;2023-08-17T19:03:43;97471.59;;;28.87;57.07
1694;BME280;71975;47.068;15.408;2023-08-17T19:08:50;97479.28;;;28.81;57.33
1694;BME280;71975;47.068;15.408;2023-08-17T19:13:57;97468.16;;;28.63;58.27
1694;BME280;71975;47.068;15.408;2023-08-17T19:19:05;97464.06;;;28.64;58.59
1694;BME280;71975;47.068;15.408;2023-08-17T19:24:12;97461.06;;;28.62;59.34
1694;BME280;71975;47.068;15.408;2023-08-17T19:29:19;97456.34;;;28.51;60.64
1694;BME280;71975;47.068;15.408;2023-08-17T19:34:26;97456.88;;;28.50;61.21
1694;BME280;71975;47.068;15.408;2023-08-17T19:39:31;97460.13;;;28.29;62.58
1694;BME280;71975;47.068;15.408;2023-08-17T19:44:38;97463.72;;;28.24;63.60
1694;BME280;71975;47.068;15.408;2023-08-17T19:49:44;97460.03;;;28.16;64.24
1694;BME280;71975;47.068;15.408;2023-08-17T19:54:49;97463.69;;;28.06;65.17
1694;BME280;71975;47.068;15.408;2023-08-17T19:59:56;97468.44;;;28.11;64.92
1694;BME280;71975;47.068;15.408;2023-08-17T20:05:02;97464.84;;;27.86;66.28
1694;BME280;71975;47.068;15.408;2023-08-17T20:10:08;97469.44;;;27.84;66.39
1694;BME280;71975;47.068;15.408;2023-08-17T20:15:15;97457.13;;;27.74;67.03
1694;BME280;71975;47.068;15.408;2023-08-17T20:20:20;97449.28;;;27.78;66.35
1694;BME280;71975;47.068;15.408;2023-08-17T20:25:24;97446.38;;;27.89;65.95
1694;BME280;71975;47.068;15.408;2023-08-17T20:30:31;97447.09;;;27.95;65.44
1694;BME280;71975;47.068;15.408;2023-08-17T20:35:36;97436.97;;;27.92;66.30
1694;BME280;71975;47.068;15.408;2023-08-17T20:40:43;97438.25;;;27.91;67.87
1694;BME280;71975;47.068;15.408;2023-08-17T20:45:50;97452.97;;;27.86;67.87
1694;BME280;71975;47.068;15.408;2023-08-17T20:50:55;97456.38;;;27.43;70.99
1694;BME280;71975;47.068;15.408;2023-08-17T20:56:01;97469.16;;;27.22;71.73
1694;BME280;71975;47.068;15.408;2023-08-17T21:01:06;97465.38;;;27.20;73.25
1694;BME280;71975;47.068;15.408;2023-08-17T21:06:09;97472.19;;;27.19;73.90
1694;BME280;71975;47.068;15.408;2023-08-17T21:11:12;97470.50;;;27.10;74.20
1694;BME280;71975;47.068;15.408;2023-08-17T21:16:16;97486.91;;;27.08;74.28
1694;BME280;71975;47.068;15.408;2023-08-17T21:21:20;97477.66;;;26.94;75.65
1694;BME280;71975;47.068;15.408;2023-08-17T21:26:23;97479.00;;;26.77;76.37
1694;BME280;71975;47.068;15.408;2023-08-17T21:31:27;97476.41;;;26.90;74.92
1694;BME280;71975;47.068;15.408;2023-08-17T21:36:30;97483.53;;;26.80;75.21
1694;BME280;71975;47.068;15.408;2023-08-17T21:41:33;97487.31;;;26.82;74.82
1694;BME280;71975;47.068;15.408;2023-08-17T21:46:37;97480.75;;;26.85;73.77
1694;BME280;71975;47.068;15.408;2023-08-17T21:51:41;97489.59;;;26.73;74.11
1694;BME280;71975;47.068;15.408;2023-08-17T21:56:44;97482.53;;;26.72;74.20
1694;BME280;71975;47.068;15.408;2023-08-17T22:01:48;97482.53;;;26.72;73.31
1694;BME280;71975;47.068;15.408;2023-08-17T22:06:51;97479.50;;;26.70;73.98
1694;BME280;71975;47.068;15.408;2023-08-17T22:11:54;97480.28;;;26.65;73.85
1694;BME280;71975;47.068;15.408;2023-08-17T22:16:58;97492.78;;;26.30;75.89
1694;BME280;71975;47.068;15.408;2023-08-17T22:22:01;97494.28;;;26.37;75.82
1694;BME280;71975;47.068;15.408;2023-08-17T22:27:06;97492.78;;;26.30;76.62
1694;BME280;71975;47.068;15.408;2023-08-17T22:32:10;97483.66;;;26.35;76.03
1694;BME280;71975;47.068;15.408;2023-08-17T22:37:13;97479.16;;;26.32;75.27
1694;BME280;71975;47.068;15.408;2023-08-17T22:42:16;97482.97;;;26.18;76.18
1694;BME280;71975;47.068;15.408;2023-08-17T22:47:21;97484.72;;;26.32;75.33
1694;BME280;71975;47.068;15.408;2023-08-17T22:52:24;97481.66;;;26.30;74.61
1694;BME280;71975;47.068;15.408;2023-08-17T22:57:26;97474.13;;;26.09;76.30
1694;BME280;71975;47.068;15.408;2023-08-17T23:02:31;97483.00;;;25.96;77.20
1694;BME280;71975;47.068;15.408;2023-08-17T23:07:34;97478.69;;;25.95;77.16
1694;BME280;71975;47.068;15.408;2023-08-17T23:12:37;97480.97;;;25.91;77.89
1694;BME280;71975;47.068;15.408;2023-08-17T23:17:42;97469.38;;;25.87;77.98
1694;BME280;71975;47.068;15.408;2023-08-17T23:22:46;97469.38;;;25.87;77.83
1694;BME280;71975;47.068;15.408;2023-08-17T23:27:49;97470.16;;;25.71;78.90
1694;BME280;71975;47.068;15.408;2023-08-17T23:32:53;97474.19;;;25.76;78.41
1694;BME280;71975;47.068;15.408;2023-08-17T23:37:58;97482.25;;;25.68;78.61
1694;BME280;71975;47.068;15.408;2023-08-17T23:43:01;97486.78;;;25.65;78.65
1694;BME280;71975;47.068;15.408;2023-08-17T23:48:06;97480.00;;;25.50;79.53
1694;BME280;71975;47.068;15.408;2023-08-17T23:53:09;97472.88;;;25.43;79.49
1694;BME280;71975;47.068;15.408;2023-08-17T23:58:12;97482.00;;;25.55;77.99
